Archival Weather

Phoenix Deer Valley

Phoenix, Arizona (KDVT)

Report from: Wednesday, December 6, 2023 8:53 PM MST
Current time: Wednesday, April 24, 2024 12:55 PM MST

Current weather – Weather history – Daily summaries
Weather forecast

Temperature17.2°C (63.0°F)
Dew point1.1°C (34.0°F)
Winds 3 kts (1.5 m/s, 3.5 mph) Northeast (50°)
Visibility10 mi. (16.1 km)
Clouds Sky clear
Altimeter30.03 in.Hg (1017 mB)
Relative humidity34 %
Density altitude292 ft. (89 m)
Sea-level pressure101.5 kPa (1015 mB, 29.98 in.Hg)
Remarks Automated weather observing station with precipitation discriminator
Flight conditions Visual Meteorological Conditions
Raw dataKDVT 070353Z 05003KT 10SM CLR 17/01 A3003 RMK AO2 SLP153 T01720011
An error has occurred. This application may no longer respond until reloaded. Reload 🗙